Tiempo atmosférico en la estación meteorológica de Marbella, Málaga (2 m.)



Fecha
DESCASC
Temp. máxima en grados centígrados (hora)
DESCASC
Temp. mínima en grados centígrados (hora)
DESCASC
Temp. media en grados centígrados
DESCASC
Racha de viento máxima en m/sg (hora)
DESCASC
Velocidad máxima media en intervalos de 10 minutos(hora)
DESCASC
Precipitaciones diarias en mm
DESCASC
Precipitaciones de 00:00 a 06:00 en mm
DESCASC
Precipitaciones de 06:00 a 12:00 en mm
DESCASC
Precipitaciones de 12:00 a 18:00 en mm
DESCASC
Precipitaciones de 18:00 a 24:00 en mm
DESCASC
10-07-2020 -- (--) -- (--) -- 3.89 (09:20) 3.89 (09:40) 0 0 0 0 0
09-07-2020 -- (--) -- (--) -- 5.83 (01:20) 3.89 (01:00) 0 0 0 0 0
08-07-2020 -- (--) -- (--) -- 8.89 (06:10) 6.67 (12:00) 0 0 0 0 0
07-07-2020 -- (--) -- (--) -- 4.72 (23:40) 4.17 (19:50) 0 0 0 0 0
06-07-2020 -- (--) -- (--) -- 2.22 (02:50) 1.67 (10:20) 0 0 0 0 0
05-07-2020 -- (--) -- (--) -- 4.44 (00:50) 3.89 (12:20) 0 0 0 0 0
04-07-2020 -- (--) -- (--) -- 8.89 (12:30) 7.22 (04:30) 0 0 0 0 0
03-07-2020 -- (--) -- (--) -- 11.11 (13:10) 9.44 (13:10) 0 0 0 0 0
02-07-2020 -- (--) -- (--) -- 9.72 (19:00) 6.94 (16:40) 0 0 0 0 0
01-07-2020 -- (--) -- (--) -- 7.5 (15:20) 6.67 (15:20) 0 0 0 0 0
30-06-2020 -- (--) -- (--) -- 5 (00:40) 3.89 (20:40) 0 0 0 0 0
29-06-2020 -- (--) -- (--) -- 6.11 (16:20) 5.83 (16:20) 0 0 0 0 0
28-06-2020 -- (--) -- (--) -- 10.28 (16:40) 9.44 (16:40) 0 0 0 0 0
27-06-2020 -- (--) -- (--) -- 8.61 (18:10) 6.94 (18:00) 0 0 0 0 0
26-06-2020 -- (--) -- (--) -- 11.39 (17:30) 7.5 (17:40) 0 0 0 0 0
25-06-2020 -- (--) -- (--) -- 5.56 (18:00) 5 (17:50) 0 0 0 0 0
24-06-2020 -- (--) -- (--) -- 5.56 (00:30) 4.17 (19:30) 0 0 0 0 0
23-06-2020 -- (--) -- (--) -- 8.06 (23:30) 5.83 (23:20) 5.3 0 0 5.3 0
22-06-2020 -- (--) -- (--) -- 12.22 (16:40) 9.72 (13:50) 0 0 0 0 0
21-06-2020 -- (--) -- (--) -- 5 (09:20) 4.72 (09:20) 0 0 0 0 0
20-06-2020 -- (--) -- (--) -- 6.67 (00:20) 5.56 (00:20) 0 0 0 0 0
19-06-2020 -- (--) -- (--) -- 8.61 (19:20) 6.67 (23:59) 0 0 0 0 0
18-06-2020 -- (--) -- (--) -- 13.61 (11:00) 10.83 (11:00) 0 0 0 0 0
17-06-2020 -- (--) -- (--) -- 8.89 (00:40) 5.83 (00:40) 0 0 0 0 0
16-06-2020 -- (--) -- (--) -- 15 (12:40) 10.83 (18:20) 0 0 0 0 0
15-06-2020 -- (--) -- (--) -- 11.11 (16:30) 7.5 (12:50) 0 0 0 0 0
14-06-2020 -- (--) -- (--) -- 14.17 (20:10) 11.39 (15:20) 0 0 0 0 0
13-06-2020 -- (--) -- (--) -- 12.22 (00:20) 10.56 (00:10) 0 0 0 0 0
12-06-2020 -- (--) -- (--) -- 13.89 (22:10) 11.67 (23:10) 0 0 0 0 0

Gráficas

Temp. máximas Temp. mínimas Temp. medias Precipitaciones Rachas de viento máximas Velocidades máximas media en intervalos de 10 minutos

Datos horarios

Fecha y hora oficial Temperatura (ºC) Velocidad del viento (km/h) Dirección del viento Racha (km/h) Dirección de racha Precipitación (mm) Presión (hPa) Tendencia (hPa) Humedad (%)
2020-07-11 23:00:00 26.7 11 Noroeste 24 Norte 0 -- -- 66
2020-07-11 22:00:00 26.8 12 Nordeste 26 Nordeste 0 -- -- 70
2020-07-11 21:00:00 26.7 9 Este 34 Nordeste 0 -- -- 71
2020-07-11 20:00:00 27.3 17 Nordeste 32 Nordeste 0 -- -- 70
2020-07-11 19:00:00 27.2 21 Nordeste 34 Este 0 -- -- 73
2020-07-11 18:00:00 26.8 24 Este 41 Este 0 -- -- 73
2020-07-11 17:00:00 27.1 28 Nordeste 40 Nordeste 0 -- -- 71
2020-07-11 16:00:00 27.2 25 Nordeste 37 Este 0 -- -- 73
2020-07-11 15:00:00 27.2 26 Este 36 Este 0 -- -- 73
2020-07-11 14:00:00 26.2 24 Este 29 Este 0 -- -- 79
2020-07-11 13:00:00 25.8 23 Este 26 Este 0 -- -- 79
2020-07-11 12:00:00 26.2 21 Este 24 Nordeste 0 -- -- 78
2020-07-11 11:00:00 27.3 15 Nordeste 20 Nordeste 0 -- -- 75
2020-07-11 10:00:00 25.7 15 Nordeste 22 Este 0 -- -- 75
2020-07-11 09:00:00 25.1 11 Este 15 Nordeste 0 -- -- 69
2020-07-11 08:00:00 24.3 10 Nordeste 13 Nordeste 0 -- -- 71
2020-07-11 07:00:00 22.6 6 Nordeste 8 Nordeste 0 -- -- 73
2020-07-11 06:00:00 22.3 4 Nordeste 8 Nordeste 0 -- -- 75
2020-07-11 05:00:00 22.5 0 Calma 4 Nordeste 0 -- -- 74
2020-07-11 04:00:00 22.7 4 Nordeste 7 Nordeste 0 -- -- 74
2020-07-11 03:00:00 23.5 5 Este 8 Este 0 -- -- 77
2020-07-11 02:00:00 23.7 0 Calma 3 Norte 0 -- -- 70
2020-07-11 01:00:00 23.5 0 Calma 5 Este 0 -- -- 79
2020-07-11 00:00:00 24.1 3 Este 8 Nordeste 0 -- -- 81
2020-07-10 23:00:00 25.1 3 Norte 7 Oeste 0 -- -- 76
2020-07-10 22:00:00 24.9 4 Oeste 6 Oeste 0 -- -- 78
2020-07-10 21:00:00 25 4 Sudoeste 6 Sudoeste 0 -- -- 73
2020-07-10 20:00:00 26.3 4 Sudoeste 5 Oeste 0 -- -- 72
2020-07-10 19:00:00 26.5 3 Sudoeste 6 Sudoeste 0 -- -- 71
2020-07-10 18:00:00 25.7 5 Sudoeste 7 Sur 0 -- -- 73
2020-07-10 17:00:00 25.9 3 Sudeste 6 Sudeste 0 -- -- 66
2020-07-10 16:00:00 26.1 3 Sur 7 Sur 0 -- -- 68
2020-07-10 15:00:00 25.1 4 Sudoeste 6 Sudoeste 0 -- -- 72
2020-07-10 14:00:00 25.2 3 Sudoeste 6 Sudoeste 0 -- -- 76
2020-07-10 13:00:00 25.3 2 Sudoeste 7 Sur 0 -- -- 77
2020-07-10 12:00:00 24.2 5 Sudoeste 10 Sudoeste 0 -- -- 81
2020-07-10 11:00:00 23.1 9 Oeste 13 Oeste 0 -- -- 82
2020-07-10 10:00:00 22.9 12 Oeste 14 Oeste 0 -- -- 80
2020-07-10 09:00:00 23.4 10 Oeste 14 Oeste 0 -- -- 76
2020-07-10 08:00:00 21.2 8 Oeste 10 Oeste 0 -- -- 79
2020-07-10 07:00:00 20.3 6 Oeste 8 Sudoeste 0 -- -- 82
2020-07-10 06:00:00 22.5 6 Noroeste 12 Noroeste 0 -- -- 75
2020-07-10 05:00:00 22.3 7 Noroeste 11 Noroeste 0 -- -- 76
2020-07-10 04:00:00 22 8 Noroeste 12 Noroeste 0 -- -- 77
2020-07-10 03:00:00 21.8 6 Noroeste 12 Oeste 0 -- -- 79
2020-07-10 02:00:00 21.6 9 Oeste 12 Oeste 0 -- -- 82
2020-07-10 01:00:00 22.1 6 Oeste 10 Oeste 0 -- -- 81
2020-07-10 00:00:00 22.7 9 Oeste 13 Oeste 0 -- -- 81
2020-07-09 23:00:00 22.4 0 Calma 8 Sudeste 0 -- -- 83
2020-07-09 22:00:00 23.5 6 Este 15 Sudeste 0 -- -- 80
2020-07-09 21:00:00 23.6 10 Sudeste 12 Este 0 -- -- 80
2020-07-09 20:00:00 24.5 6 Sudoeste 10 Sudoeste 0 -- -- 76
2020-07-09 19:00:00 24.4 9 Oeste 13 Sudoeste 0 -- -- 78
2020-07-09 18:00:00 24.5 8 Sudoeste 12 Sudoeste 0 -- -- 78
2020-07-09 17:00:00 24.5 7 Sudoeste 9 Sudoeste 0 -- -- 75
2020-07-09 16:00:00 23.9 8 Sudoeste 10 Sudoeste 0 -- -- 78
2020-07-09 15:00:00 24 8 Sudoeste 10 Sudoeste 0 -- -- 79
2020-07-09 14:00:00 23.8 8 Sudoeste 10 Sudoeste 0 -- -- 79
2020-07-09 13:00:00 23.6 7 Sudoeste 13 Sudoeste 0 -- -- 82
2020-07-09 12:00:00 23.6 10 Sudoeste 13 Sudoeste 0 -- -- 84
2020-07-09 11:00:00 23.1 11 Sudoeste 13 Sudoeste 0 -- -- 86
2020-07-09 10:00:00 23.4 9 Sudoeste 10 Sudoeste 0 -- -- 82
2020-07-09 09:00:00 23.6 9 Sudoeste 10 Sudoeste 0 -- -- 82
2020-07-09 08:00:00 23.2 9 Oeste 12 Oeste 0 -- -- 80
2020-07-09 07:00:00 22.4 8 Noroeste 12 Noroeste 0 -- -- 84
2020-07-09 06:00:00 23.8 0 Calma 6 Nordeste 0 -- -- 73
2020-07-09 05:00:00 23.2 5 Norte 9 Norte 0 -- -- 67
2020-07-09 04:00:00 23.5 6 Nordeste 11 Nordeste 0 -- -- 64
2020-07-09 03:00:00 23.7 9 Nordeste 18 Nordeste 0 -- -- 60
2020-07-09 02:00:00 24 12 Nordeste 21 Nordeste 0 -- -- 56
2020-07-09 01:00:00 24.2 14 Nordeste 21 Norte 0 -- -- 55
2020-07-09 00:00:00 24.4 13 Norte 18 Norte 0 -- -- 59
2020-07-08 23:00:00 24.3 2 Nordeste 5 Norte 0 -- -- 65
2020-07-08 22:00:00 24.7 2 Norte 6 Sur 0 -- -- 63
2020-07-08 21:00:00 25.5 3 Sudeste 11 Oeste 0 -- -- 59
2020-07-08 20:00:00 25.5 10 Oeste 17 Oeste 0 -- -- 71
2020-07-08 19:00:00 25.2 15 Oeste 18 Oeste 0 -- -- 72
2020-07-08 18:00:00 24.8 11 Oeste 14 Oeste 0 -- -- 70
2020-07-08 17:00:00 25.4 10 Sur 10 Sur 0 -- -- 65
2020-07-08 16:00:00 25.2 7 Sudeste 10 Sur 0 -- -- 60
2020-07-08 15:00:00 25.3 8 Sudeste 21 Este 0 -- -- 57
2020-07-08 14:00:00 24.7 17 Este 25 Este 0 -- -- 57
2020-07-08 13:00:00 24.6 22 Este 30 Este 0 -- -- 57
2020-07-08 12:00:00 24.7 24 Este 31 Nordeste 0 -- -- 54
2020-07-08 11:00:00 25.1 21 Este 28 Este 0 -- -- 48
2020-07-08 10:00:00 24.1 15 Este 23 Nordeste 0 -- -- 47
2020-07-08 09:00:00 24.4 14 Nordeste 26 Nordeste 0 -- -- 39
2020-07-08 08:00:00 23 18 Este 23 Nordeste 0 -- -- 64
2020-07-08 07:00:00 22.6 11 Nordeste 32 Nordeste 0 -- -- 53
2020-07-08 06:00:00 23.7 18 Nordeste 29 Nordeste 0 -- -- 36
2020-07-08 05:00:00 21 6 Norte 19 Nordeste 0 -- -- 50
2020-07-08 04:00:00 22.1 14 Nordeste 22 Nordeste 0 -- -- 48
2020-07-08 03:00:00 23.8 4 Sudoeste 25 Este 0 -- -- 73
2020-07-08 02:00:00 24.1 22 Este 26 Este 0 -- -- 68
2020-07-08 01:00:00 24.3 3 Este 9 Nordeste 0 -- -- 76
2020-07-08 00:00:00 24.6 11 Este 17 Este 0 -- -- 85
2020-07-07 23:00:00 23.7 3 Norte 12 Oeste 0 -- -- 84
2020-07-07 22:00:00 25 9 Oeste 14 Oeste 0 -- -- 88
2020-07-07 21:00:00 25.4 12 Oeste 14 Oeste 0 -- -- 85
2020-07-07 20:00:00 25.6 13 Oeste 16 Oeste 0 -- -- 81
2020-07-07 19:00:00 26.4 10 Oeste 13 Oeste 0 -- -- 78
2020-07-07 18:00:00 26.3 12 Oeste 14 Oeste 0 -- -- 76
2020-07-07 17:00:00 25.3 12 Oeste 16 Oeste 0 -- -- 76
2020-07-07 16:00:00 24.9 12 Oeste 13 Oeste 0 -- -- 74
2020-07-07 15:00:00 26 5 Sudoeste 6 Sudoeste 0 -- -- 72
2020-07-07 14:00:00 25.4 4 Sur 5 Sudeste 0 -- -- 68
2020-07-07 13:00:00 25 5 Este 9 Este 0 -- -- 72
2020-07-07 12:00:00 23.8 4 Este 6 Este 0 -- -- 64
2020-07-07 11:00:00 23.9 0 Calma 9 Sudoeste 0 -- -- 65
2020-07-07 10:00:00 22.6 5 Sudoeste 6 Sudoeste 0 -- -- 64
2020-07-07 09:00:00 22.9 4 Oeste 4 Oeste 0 -- -- 68
2020-07-07 08:00:00 20.8 3 Norte 4 Norte 0 -- -- 57
2020-07-07 07:00:00 20.6 0 Calma 6 Nordeste 0 -- -- 63
2020-07-07 06:00:00 20 0 Calma 3 Norte 0 -- -- 59
2020-07-07 05:00:00 20.8 0 Calma 4 Nordeste 0 -- -- 65
2020-07-07 04:00:00 20.6 0 Calma 4 Nordeste 0 -- -- 62
2020-07-07 03:00:00 21.8 0 Calma 4 Oeste 0 -- -- 64
2020-07-07 02:00:00 23 0 Calma 4 Este 0 -- -- 70
2020-07-07 01:00:00 22.6 0 Calma 7 Nordeste 0 -- -- 68
2020-07-07 00:00:00 23.5 4 Nordeste 6 Este 0 -- -- 69
2020-07-06 23:00:00 24.7 0 Calma 4 Sudoeste 0 -- -- 76
2020-07-06 22:00:00 26.6 0 Calma 3 Nordeste 0 -- -- 78
2020-07-06 21:00:00 27.7 0 Calma 3 Sudeste 0 -- -- 69
2020-07-06 20:00:00 26.1 0 Calma 6 Este 0 -- -- 51
2020-07-06 19:00:00 28.5 0 Calma 4 Este 0 -- -- 68
2020-07-06 18:00:00 27.7 3 Sudoeste 4 Sudoeste 0 -- -- 74
2020-07-06 17:00:00 27.9 0 Calma 6 Sudeste 0 -- -- 71
2020-07-06 16:00:00 26.9 2 Sudeste 6 Sudoeste 0 -- -- 68
2020-07-06 15:00:00 26.3 4 Sudoeste 6 Sudoeste 0 -- -- 73
2020-07-06 14:00:00 24.8 0 Calma 4 Este 0 -- -- 63
2020-07-06 13:00:00 24.8 0 Calma 3 Sudeste 0 -- -- 64
2020-07-06 12:00:00 25.1 0 Calma 6 Sudoeste 0 -- -- 71
2020-07-06 11:00:00 24.7 6 Sudoeste 8 Sudeste 0 -- -- 70
2020-07-06 10:00:00 23.6 3 Este 5 Este 0 -- -- 51
2020-07-06 09:00:00 24 0 Calma 4 Norte 0 -- -- 52
2020-07-06 08:00:00 22.4 0 Calma 5 Norte 0 -- -- 63
2020-07-06 07:00:00 21.9 0 Calma 5 Nordeste 0 -- -- 70
2020-07-06 06:00:00 22.3 0 Calma 3 Nordeste 0 -- -- 70
2020-07-06 05:00:00 23.1 0 Calma 4 Este 0 -- -- 71
2020-07-06 04:00:00 23 2 Nordeste 4 Nordeste 0 -- -- 69
2020-07-06 03:00:00 23.8 5 Nordeste 8 Nordeste 0 -- -- 70
2020-07-06 02:00:00 24 0 Calma 4 Nordeste 0 -- -- 73
2020-07-06 01:00:00 24.7 0 Calma 4 Norte 0 -- -- 72
2020-07-06 00:00:00 25 0 Calma 3 Nordeste 0 -- -- 75
2020-07-05 23:00:00 25.4 0 Calma 6 Oeste 0 -- -- 76
2020-07-05 22:00:00 25.4 5 Oeste 7 Oeste 0 -- -- 77
2020-07-05 21:00:00 26.5 6 Oeste 9 Oeste 0 -- -- 77
2020-07-05 20:00:00 26.4 8 Oeste 13 Oeste 0 -- -- 73
2020-07-05 19:00:00 27.1 6 Sudoeste 11 Sur 0 -- -- 73
2020-07-05 18:00:00 26.8 9 Sur 12 Sur 0 -- -- 69
2020-07-05 17:00:00 26.6 4 Sudeste 10 Sudeste 0 -- -- 70
2020-07-05 16:00:00 26 5 Sudeste 7 Sudeste 0 -- -- 69
2020-07-05 15:00:00 26.6 3 Sudeste 6 Este 0 -- -- 67
2020-07-05 14:00:00 26 4 Este 9 Este 0 -- -- 68
2020-07-05 13:00:00 26 10 Este 15 Este 0 -- -- 71
2020-07-05 12:00:00 26.2 14 Este 15 Este 0 -- -- 74
2020-07-05 11:00:00 27.2 0 Calma 8 Este 0 -- -- 70
2020-07-05 10:00:00 25.3 3 Sudeste 8 Sudeste 0 -- -- 68
2020-07-05 09:00:00 24.5 0 Calma 4 Nordeste 0 -- -- 62
2020-07-05 08:00:00 25.6 0 Calma 0 Calma 0 -- -- 73
2020-07-05 07:00:00 24.7 0 Calma 6 Sudeste 0 -- -- 75
2020-07-05 06:00:00 25.1 4 Noroeste 13 Norte 0 -- -- 72
2020-07-05 05:00:00 25.6 9 Norte 11 Norte 0 -- -- 72
2020-07-05 04:00:00 25.9 6 Nordeste 12 Nordeste 0 -- -- 73
2020-07-05 03:00:00 25.9 9 Nordeste 13 Norte 0 -- -- 77
2020-07-05 02:00:00 24.9 0 Calma 15 Este 0 -- -- 83
2020-07-05 01:00:00 25.6 12 Nordeste 16 Este 0 -- -- 83
2020-07-05 00:00:00 26.3 13 Nordeste 17 Nordeste 0 -- -- 80
2020-07-04 23:00:00 26.8 11 Nordeste 16 Nordeste 0 -- -- 80
2020-07-04 22:00:00 26.1 15 Este 20 Este 0 -- -- 82
2020-07-04 21:00:00 27 16 Este 18 Este 0 -- -- 79
2020-07-04 20:00:00 27.2 13 Este 14 Nordeste 0 -- -- 81
2020-07-04 19:00:00 27.5 12 Este 13 Este 0 -- -- 80
2020-07-04 18:00:00 27.7 12 Este 16 Nordeste 0 -- -- 79
2020-07-04 17:00:00 27.7 15 Este 18 Este 0 -- -- 80
2020-07-04 16:00:00 27.6 17 Este 19 Este 0 -- -- 81
2020-07-04 15:00:00 26.9 18 Este 24 Este 0 -- -- 81
2020-07-04 14:00:00 27.1 22 Este 30 Nordeste 0 -- -- 81
2020-07-04 13:00:00 27.3 24 Nordeste 32 Nordeste 0 -- -- 81
2020-07-04 12:00:00 27.2 22 Nordeste 29 Este 0 -- -- 80
2020-07-04 11:00:00 26.4 19 Nordeste 26 Nordeste 0 -- -- 83
2020-07-04 10:00:00 25.4 16 Nordeste 30 Nordeste 0 -- -- 87
2020-07-04 09:00:00 25.5 21 Nordeste 30 Nordeste 0 -- -- 87
2020-07-04 08:00:00 25 22 Nordeste 27 Este 0 -- -- 89
2020-07-04 07:00:00 24.9 14 Nordeste 24 Nordeste 0 -- -- 87
2020-07-04 06:00:00 24.7 22 Este 28 Nordeste 0 -- -- 89
2020-07-04 05:00:00 25.2 17 Nordeste 30 Este 0 -- -- 89
2020-07-04 04:00:00 25.7 21 Nordeste 27 Nordeste 0 -- -- 85
2020-07-04 03:00:00 26.1 19 Nordeste 26 Nordeste 0 -- -- 83
2020-07-04 02:00:00 25.7 14 Nordeste 20 Nordeste 0 -- -- 82
2020-07-04 01:00:00 25.7 14 Nordeste 23 Este 0 -- -- 83
2020-07-04 00:00:00 25.1 20 Este 26 Este 0 -- -- 83
2020-07-03 23:00:00 26 16 Nordeste 22 Nordeste 0 -- -- 81
2020-07-03 22:00:00 27.4 13 Nordeste 25 Nordeste 0 -- -- 75
2020-07-03 21:00:00 25.9 20 Este 30 Este 0 -- -- 79
2020-07-03 20:00:00 26 27 Este 32 Este 0 -- -- 79
2020-07-03 19:00:00 27 25 Este 32 Este 0 -- -- 76
2020-07-03 18:00:00 26.7 28 Este 33 Este 0 -- -- 77
2020-07-03 17:00:00 26.7 28 Este 35 Este 0 -- -- 76
2020-07-03 16:00:00 27 28 Este 37 Nordeste 0 -- -- 77
2020-07-03 15:00:00 27.1 29 Este 38 Nordeste 0 -- -- 77
2020-07-03 14:00:00 25.9 27 Este 40 Este 0 -- -- 74
2020-07-03 13:00:00 25.4 33 Este 40 Este 0 -- -- 74
2020-07-03 12:00:00 24.9 3 Sudoeste 14 Oeste 0 -- -- 78
2020-07-03 11:00:00 23.7 10 Sudoeste 13 Sudoeste 0 -- -- 84
2020-07-03 10:00:00 23.8 6 Oeste 8 Oeste 0 -- -- 80
2020-07-03 09:00:00 23.9 4 Sudoeste 8 Oeste 0 -- -- 80
2020-07-03 08:00:00 22 5 Oeste 10 Oeste 0 -- -- 84
2020-07-03 07:00:00 21.4 3 Oeste 17 Oeste 0 -- -- 86
2020-07-03 06:00:00 21.2 8 Oeste 14 Sudoeste 0 -- -- 84
2020-07-03 05:00:00 21.9 9 Oeste 13 Sudoeste 0 -- -- 83
2020-07-03 04:00:00 21.8 3 Oeste 8 Oeste 0 -- -- 81
2020-07-03 03:00:00 22.5 6 Oeste 14 Oeste 0 -- -- 79
2020-07-03 02:00:00 22.8 8 Oeste 15 Oeste 0 -- -- 78
2020-07-03 01:00:00 23.1 12 Oeste 25 Oeste 0 -- -- 79
2020-07-03 00:00:00 23.4 18 Oeste 24 Oeste 0 -- -- 77
2020-07-02 23:00:00 23.4 15 Sudoeste 17 Sudoeste 0 -- -- 79
2020-07-02 22:00:00 23.4 9 Oeste 14 Sudoeste 0 -- -- 80
2020-07-02 21:00:00 24.1 12 Oeste 20 Oeste 0 -- -- 75
2020-07-02 20:00:00 23.6 17 Oeste 29 Sudoeste 0 -- -- 68
2020-07-02 19:00:00 24.1 24 Oeste 35 Oeste 0 -- -- 68
2020-07-02 18:00:00 24.8 14 Oeste 24 Sudoeste 0 -- -- 77
2020-07-02 17:00:00 25.1 22 Oeste 30 Oeste 0 -- -- 75
2020-07-02 16:00:00 25 14 Oeste 20 Oeste 0 -- -- 80
2020-07-02 15:00:00 25 17 Oeste 19 Oeste 0 -- -- 79
2020-07-02 14:00:00 24.1 14 Oeste 18 Sudoeste 0 -- -- 83
2020-07-02 13:00:00 23.4 18 Sudoeste 19 Sudoeste 0 -- -- 85
2020-07-02 12:00:00 23.3 13 Sudoeste 15 Oeste 0 -- -- 84
2020-07-02 11:00:00 23.3 10 Oeste 13 Sudoeste 0 -- -- 82
2020-07-02 10:00:00 22.9 11 Oeste 17 Oeste 0 -- -- 80
2020-07-02 09:00:00 23.3 7 Oeste 9 Sudoeste 0 -- -- 77
2020-07-02 08:00:00 22.4 8 Oeste 13 Oeste 0 -- -- 74
2020-07-02 07:00:00 21.9 5 Oeste 10 Oeste 0 -- -- 75
2020-07-02 06:00:00 21.7 3 Oeste 8 Sur 0 -- -- 77
2020-07-02 05:00:00 21.2 8 Oeste 12 Oeste 0 -- -- 78
2020-07-02 04:00:00 21.8 4 Oeste 11 Sudoeste 0 -- -- 80
2020-07-02 03:00:00 22.6 7 Oeste 9 Oeste 0 -- -- 75
2020-07-02 02:00:00 22.9 9 Oeste 15 Oeste 0 -- -- 75
2020-07-02 01:00:00 24 13 Oeste 20 Oeste 0 -- -- 71
2020-07-02 00:00:00 24.1 14 Oeste 18 Sudoeste 0 -- -- 75
2020-07-01 23:00:00 23.7 14 Oeste 19 Oeste 0 -- -- 66
2020-07-01 22:00:00 24.9 12 Oeste 18 Oeste 0 -- -- 74
2020-07-01 21:00:00 25.1 15 Oeste 18 Oeste 0 -- -- 69
2020-07-01 20:00:00 25.1 12 Oeste 17 Sudoeste 0 -- -- 73
2020-07-01 19:00:00 24.5 14 Sudoeste 22 Sudoeste 0 -- -- 71
2020-07-01 18:00:00 26.3 12 Sudoeste 14 Oeste 0 -- -- 80
2020-07-01 17:00:00 25.1 12 Sudoeste 17 Oeste 0 -- -- 75
2020-07-01 16:00:00 25.6 15 Sudoeste 27 Oeste 0 -- -- 77
2020-07-01 15:00:00 25.5 21 Oeste 23 Oeste 0 -- -- 70
2020-07-01 14:00:00 25.4 21 Oeste 23 Oeste 0 -- -- 76
2020-07-01 13:00:00 24.5 13 Oeste 17 Oeste 0 -- -- 85
2020-07-01 12:00:00 23.8 17 Oeste 22 Oeste 0 -- -- 86
2020-07-01 11:00:00 23.6 16 Sudoeste 20 Sudoeste 0 -- -- 87
2020-07-01 10:00:00 23.8 12 Sudoeste 15 Sudoeste 0 -- -- 88
2020-07-01 09:00:00 24.8 6 Oeste 11 Sudoeste 0 -- -- 82
2020-07-01 08:00:00 23.4 5 Noroeste 7 Noroeste 0 -- -- 89
2020-07-01 07:00:00 22.9 3 Norte 8 Nordeste 0 -- -- 90
2020-07-01 06:00:00 22.4 3 Nordeste 5 Nordeste 0 -- -- 89
2020-07-01 05:00:00 22.5 0 Calma 3 Norte 0 -- -- 88
2020-07-01 04:00:00 22.7 0 Calma 6 Nordeste 0 -- -- 89
2020-07-01 03:00:00 23.1 0 Calma 6 Oeste 0 -- -- 88
2020-07-01 02:00:00 23.3 6 Oeste 11 Oeste 0 -- -- 88
2020-07-01 01:00:00 23.7 10 Oeste 13 Oeste 0 -- -- 89
2020-07-01 00:00:00 23.9 10 Oeste 13 Oeste 0 -- -- 89
2020-06-30 23:00:00 24.1 11 Oeste 17 Oeste 0 -- -- 90
2020-06-30 22:00:00 23.5 11 Oeste 15 Oeste 0 -- -- 92
2020-06-30 21:00:00 24.5 14 Oeste 16 Oeste 0 -- -- 90
2020-06-30 20:00:00 25.8 13 Oeste 14 Oeste 0 -- -- 86
2020-06-30 19:00:00 26.6 9 Oeste 10 Oeste 0 -- -- 81
2020-06-30 18:00:00 27.3 5 Sudoeste 6 Sudoeste 0 -- -- 77
2020-06-30 17:00:00 26.9 2 Este 6 Este 0 -- -- 78
2020-06-30 16:00:00 26.6 6 Este 13 Este 0 -- -- 82
2020-06-30 15:00:00 26 13 Este 14 Este 0 -- -- 84
2020-06-30 14:00:00 25.5 11 Este 12 Este 0 -- -- 84
2020-06-30 13:00:00 24.7 5 Sudoeste 12 Oeste 0 -- -- 87
2020-06-30 12:00:00 23.2 9 Oeste 13 Oeste 0 -- -- 89
2020-06-30 11:00:00 23.5 9 Oeste 12 Oeste 0 -- -- 84
2020-06-30 10:00:00 23.9 5 Sudoeste 8 Sudoeste 0 -- -- 79
2020-06-30 09:00:00 22.2 0 Calma 4 Oeste 0 -- -- 64
2020-06-30 08:00:00 21.2 4 Oeste 5 Sudoeste 0 -- -- 71
2020-06-30 07:00:00 21.9 0 Calma 9 Noroeste 0 -- -- 70
2020-06-30 06:00:00 20.3 6 Noroeste 11 Noroeste 0 -- -- 60
2020-06-30 05:00:00 19.5 2 Norte 8 Norte 0 -- -- 57
2020-06-30 04:00:00 19.7 0 Calma 6 Sudoeste 0 -- -- 61
2020-06-30 03:00:00 20.5 4 Oeste 12 Este 0 -- -- 63
2020-06-30 02:00:00 21 10 Nordeste 18 Norte 0 -- -- 64
2020-06-30 01:00:00 21.6 13 Nordeste 18 Nordeste 0 -- -- 52
2020-06-30 00:00:00 21.6 10 Nordeste 14 Nordeste 0 -- -- 47
2020-06-29 23:00:00 21.2 10 Este 13 Este 0 -- -- 57
2020-06-29 22:00:00 21.6 3 Nordeste 5 Este 0 -- -- 51
2020-06-29 21:00:00 23.6 0 Calma 5 Sudoeste 0 -- -- 69
2020-06-29 20:00:00 22.6 5 Este 10 Este 0 -- -- 59
2020-06-29 19:00:00 26 8 Este 17 Este 0 -- -- 73
2020-06-29 18:00:00 26.2 15 Este 17 Este 0 -- -- 77
2020-06-29 17:00:00 25.3 14 Este 22 Este 0 -- -- 75
2020-06-29 16:00:00 25 19 Este 21 Este 0 -- -- 74
2020-06-29 15:00:00 22.9 13 Este 14 Este 0 -- -- 68
2020-06-29 14:00:00 21.1 10 Este 12 Este 0 -- -- 63
2020-06-29 13:00:00 21.4 8 Este 10 Este 0 -- -- 66
2020-06-29 12:00:00 24.1 8 Este 9 Nordeste 0 -- -- 70
2020-06-29 11:00:00 25 0 Calma 10 Oeste 0 -- -- 76
2020-06-29 10:00:00 23.2 12 Oeste 14 Oeste 0 -- -- 80
2020-06-29 09:00:00 22.5 10 Oeste 12 Oeste 0 -- -- 80
2020-06-29 08:00:00 22 8 Oeste 17 Noroeste 0 -- -- 77
2020-06-29 07:00:00 21.1 11 Oeste 14 Oeste 0 -- -- 75
2020-06-29 06:00:00 21.1 0 Calma 4 Nordeste 0 -- -- 79
2020-06-29 05:00:00 21.6 0 Calma 8 Noroeste 0 -- -- 78
2020-06-29 04:00:00 22.1 7 Noroeste 8 Noroeste 0 -- -- 82
2020-06-29 03:00:00 22.2 5 Oeste 17 Nordeste 0 -- -- 81
2020-06-29 02:00:00 22.7 17 Este 20 Este 0 -- -- 85
2020-06-29 01:00:00 23.2 8 Nordeste 21 Este 0 -- -- 85
2020-06-29 00:00:00 22.8 19 Este 21 Este 0 -- -- 88
2020-06-28 23:00:00 23.4 7 Nordeste 17 Este 0 -- -- 84
2020-06-28 22:00:00 23.6 15 Nordeste 27 Este 0 -- -- 86
2020-06-28 21:00:00 23.7 24 Este 28 Este 0 -- -- 86
2020-06-28 20:00:00 24.7 24 Este 28 Este 0 -- -- 83
2020-06-28 19:00:00 24.5 25 Este 30 Este 0 -- -- 84
2020-06-28 18:00:00 24.6 25 Este 33 Este 0 -- -- 83
2020-06-28 17:00:00 24.4 31 Este 37 Este 0 -- -- 84
2020-06-28 16:00:00 24.4 31 Este 35 Este 0 -- -- 84
2020-06-28 15:00:00 24.4 26 Este 29 Este 0 -- -- 84
2020-06-28 14:00:00 23.5 20 Este 22 Este 0 -- -- 85
2020-06-28 13:00:00 24 12 Este 15 Este 0 -- -- 82
2020-06-28 12:00:00 24 4 Sudeste 8 Sudoeste 0 -- -- 86
2020-06-28 11:00:00 23.5 4 Sudoeste 9 Sudoeste 0 -- -- 87
2020-06-28 10:00:00 23.1 6 Sudoeste 8 Oeste 0 -- -- 85
2020-06-28 09:00:00 23.6 4 Sudoeste 6 Sudoeste 0 -- -- 76
2020-06-28 08:00:00 20.6 2 Oeste 7 Noroeste 0 -- -- 86
2020-06-28 07:00:00 20.7 3 Oeste 9 Oeste 0 -- -- 86
2020-06-28 06:00:00 20.6 7 Oeste 8 Oeste 0 -- -- 86
2020-06-28 05:00:00 21.1 0 Calma 6 Este 0 -- -- 86
2020-06-28 04:00:00 20.7 0 Calma 6 Oeste 0 -- -- 87
2020-06-28 03:00:00 20.5 4 Oeste 8 Oeste 0 -- -- 86
2020-06-28 02:00:00 21.1 5 Sudoeste 18 Este 0 -- -- 86
2020-06-28 01:00:00 21.2 9 Este 13 Este 0 -- -- 85
2020-06-28 00:00:00 22.2 0 Calma 11 Oeste 0 -- -- 84
2020-06-27 23:00:00 22.3 12 Oeste 17 Oeste 0 -- -- 81
2020-06-27 22:00:00 23.4 13 Oeste 18 Oeste 0 -- -- 77
2020-06-27 21:00:00 24.1 18 Oeste 24 Oeste 0 -- -- 75
2020-06-27 20:00:00 24.4 15 Oeste 19 Oeste 0 -- -- 76
2020-06-27 19:00:00 24.3 15 Sudoeste 31 Oeste 0 -- -- 78
2020-06-27 18:00:00 24.8 25 Oeste 29 Oeste 0 -- -- 73
2020-06-27 17:00:00 24.1 18 Oeste 24 Oeste 0 -- -- 76
2020-06-27 16:00:00 24 17 Oeste 22 Oeste 0 -- -- 76
2020-06-27 15:00:00 24.1 17 Oeste 20 Oeste 0 -- -- 75
2020-06-27 14:00:00 23.2 10 Oeste 18 Sudoeste 0 -- -- 81
2020-06-27 13:00:00 22.8 12 Sudoeste 20 Sudoeste 0 -- -- 83
2020-06-27 12:00:00 22.1 14 Sudoeste 16 Sudoeste 0 -- -- 85
2020-06-27 11:00:00 22 12 Sudoeste 14 Oeste 0 -- -- 85
2020-06-27 10:00:00 21.4 14 Oeste 17 Oeste 0 -- -- 84
2020-06-27 09:00:00 22.1 9 Sudoeste 10 Sudoeste 0 -- -- 83
2020-06-27 08:00:00 21.6 2 Sudoeste 12 Sur 0 -- -- 82
2020-06-27 07:00:00 19.7 6 Oeste 10 Oeste 0 -- -- 83
2020-06-27 06:00:00 19.6 0 Calma 9 Oeste 0 -- -- 83
2020-06-27 05:00:00 19.5 9 Oeste 12 Oeste 0 -- -- 83
2020-06-27 04:00:00 19.9 10 Oeste 13 Oeste 0 -- -- 85
2020-06-27 03:00:00 20.4 8 Oeste 11 Oeste 0 -- -- 84
2020-06-27 02:00:00 21.1 8 Oeste 16 Oeste 0 -- -- 81
2020-06-27 01:00:00 21.6 14 Sudoeste 18 Sudoeste 0 -- -- 80
2020-06-27 00:00:00 22.3 12 Sudoeste 18 Oeste 0 -- -- 75
2020-06-26 23:00:00 22.7 15 Oeste 25 Oeste 0 -- -- 72
2020-06-26 22:00:00 23.2 14 Oeste 28 Sudoeste 0 -- -- 70
2020-06-26 21:00:00 24.2 17 Oeste 23 Sudoeste 0 -- -- 70
2020-06-26 20:00:00 23.8 19 Oeste 28 Sudoeste 0 -- -- 72
2020-06-26 19:00:00 24.3 17 Oeste 35 Oeste 0 -- -- 69
2020-06-26 18:00:00 24.2 21 Oeste 41 Sudoeste 0 -- -- 72
2020-06-26 17:00:00 24.5 21 Sudoeste 33 Oeste 0 -- -- 70
2020-06-26 16:00:00 25.3 19 Oeste 32 Oeste 0 -- -- 70
2020-06-26 15:00:00 25.2 14 Oeste 24 Sudoeste 0 -- -- 73
2020-06-26 14:00:00 25.1 5 Sudoeste 10 Sudoeste 0 -- -- 77
2020-06-26 13:00:00 24.1 7 Sudoeste 11 Sudoeste 0 -- -- 79
2020-06-26 12:00:00 24.4 2 Oeste 13 Oeste 0 -- -- 78
2020-06-26 11:00:00 22.8 11 Sudoeste 20 Oeste 0 -- -- 82
2020-06-26 10:00:00 22.1 19 Oeste 26 Oeste 0 -- -- 81
2020-06-26 09:00:00 21.7 15 Oeste 19 Oeste 0 -- -- 83
2020-06-26 08:00:00 21.5 10 Oeste 14 Oeste 0 -- -- 82
2020-06-26 07:00:00 20.1 11 Oeste 17 Oeste 0 -- -- 81
2020-06-26 06:00:00 21.4 4 Oeste 9 Noroeste 0 -- -- 81
2020-06-26 05:00:00 21.1 6 Oeste 12 Oeste 0 -- -- 82
2020-06-26 04:00:00 20.7 10 Noroeste 14 Noroeste 0 -- -- 84
2020-06-26 03:00:00 21.4 8 Noroeste 11 Noroeste 0 -- -- 85
2020-06-26 02:00:00 21.7 0 Calma 5 Este 0 -- -- 85
2020-06-26 01:00:00 22.1 4 Nordeste 9 Nordeste 0 -- -- 83
2020-06-26 00:00:00 22.6 5 Este 7 Nordeste 0 -- -- 81
2020-06-25 23:00:00 23.5 0 Calma 12 Oeste 0 -- -- 76
2020-06-25 22:00:00 23.2 11 Oeste 14 Oeste 0 -- -- 81
2020-06-25 21:00:00 23.8 13 Sudoeste 16 Oeste 0 -- -- 83
2020-06-25 20:00:00 24.2 15 Oeste 17 Oeste 0 -- -- 80
2020-06-25 19:00:00 24.3 15 Oeste 19 Oeste 0 -- -- 82
2020-06-25 18:00:00 24.2 18 Oeste 20 Oeste 0 -- -- 80
2020-06-25 17:00:00 24.4 15 Oeste 16 Oeste 0 -- -- 81
2020-06-25 16:00:00 24.1 13 Oeste 15 Oeste 0 -- -- 82
2020-06-25 15:00:00 23.7 13 Oeste 15 Oeste 0 -- -- 77
2020-06-25 14:00:00 23.3 14 Oeste 18 Sudoeste 0 -- -- 77
2020-06-25 13:00:00 22.6 15 Oeste 17 Oeste 0 -- -- 78
2020-06-25 12:00:00 22.7 13 Oeste 15 Oeste 0 -- -- 78
2020-06-25 11:00:00 23.8 8 Sudoeste 9 Sudoeste 0 -- -- 71
2020-06-25 10:00:00 23.8 4 Este 7 Este 0 -- -- 68
2020-06-25 09:00:00 23 0 Calma 3 Este 0 -- -- 65
2020-06-25 08:00:00 21.3 0 Calma 4 Noroeste 0 -- -- 71
2020-06-25 07:00:00 20 0 Calma 4 Sudoeste 0 -- -- 71
2020-06-25 06:00:00 20.8 0 Calma 5 Noroeste 0 -- -- 72
2020-06-25 05:00:00 20.3 0 Calma 4 Este 0 -- -- 72
2020-06-25 04:00:00 20.6 2 Oeste 5 Sudoeste 0 -- -- 70
2020-06-25 03:00:00 21.2 0 Calma 8 Sudoeste 0 -- -- 71
2020-06-25 02:00:00 21.5 0 Calma 6 Nordeste 0 -- -- 69
2020-06-25 01:00:00 21.4 5 Nordeste 6 Este 0 -- -- 66
2020-06-25 00:00:00 21.9 3 Norte 9 Nordeste 0 -- -- 64
2020-06-24 23:00:00 22.8 6 Nordeste 15 Nordeste 0 -- -- 58
2020-06-24 22:00:00 23 5 Nordeste 13 Oeste 0 -- -- 79
2020-06-24 21:00:00 22.8 13 Oeste 15 Oeste 0 -- -- 84
2020-06-24 20:00:00 23.4 13 Oeste 17 Oeste 0 -- -- 84
2020-06-24 19:00:00 23.8 14 Oeste 18 Oeste 0 -- -- 82
2020-06-24 18:00:00 24.3 15 Oeste 20 Sudoeste 0 -- -- 81
2020-06-24 17:00:00 26.1 3 Este 10 Este 0 -- -- 74
2020-06-24 16:00:00 25.2 11 Este 13 Nordeste 0 -- -- 73
2020-06-24 15:00:00 26 3 Este 7 Sur 0 -- -- 68
2020-06-24 14:00:00 26.1 0 Calma 7 Sur 0 -- -- 66
2020-06-24 13:00:00 25.1 8 Sur 13 Sur 0 -- -- 71
2020-06-24 12:00:00 24.2 4 Sudoeste 10 Sudoeste 0 -- -- 65
2020-06-24 11:00:00 23.1 10 Oeste 16 Oeste 0 -- -- 70
2020-06-24 10:00:00 22.3 13 Oeste 15 Oeste 0 -- -- 78
2020-06-24 09:00:00 22.8 10 Oeste 16 Sudoeste 0 -- -- 73
2020-06-24 08:00:00 22.8 9 Noroeste 15 Oeste 0 -- -- 62
2020-06-24 07:00:00 22.1 10 Noroeste 17 Noroeste 0 -- -- 70
2020-06-24 06:00:00 22 7 Noroeste 14 Noroeste 0 -- -- 72
2020-06-24 05:00:00 23.1 9 Noroeste 15 Noroeste 0 -- -- 67
2020-06-24 04:00:00 23.1 12 Noroeste 17 Noroeste 0 -- -- 69
2020-06-24 03:00:00 22.1 8 Oeste 17 Oeste 0 -- -- 76
2020-06-24 02:00:00 23 10 Sudoeste 13 Sudoeste 0 -- -- 77
2020-06-24 01:00:00 22.7 12 Nordeste 20 Nordeste 0 -- -- 63
2020-06-24 00:00:00 23 15 Nordeste 29 Nordeste 0 -- -- 60
2020-06-23 23:00:00 23.6 10 Este 22 Nordeste 0 -- -- 69
2020-06-23 22:00:00 23.6 2 Norte 11 Oeste 0 -- -- 75
2020-06-23 21:00:00 22 9 Oeste 16 Oeste 0 -- -- 82
2020-06-23 20:00:00 22.8 14 Oeste 20 Oeste 0 -- -- 79
2020-06-23 19:00:00 23.7 14 Oeste 17 Oeste 0 -- -- 78
2020-06-23 18:00:00 24.1 12 Oeste 14 Oeste 0 -- -- 78
2020-06-23 17:00:00 23.8 13 Oeste 17 Oeste 0 -- -- 80
2020-06-23 16:00:00 23.6 16 Oeste 18 Oeste 0 -- -- 81
2020-06-23 15:00:00 23.8 14 Oeste 17 Sudoeste -- -- -- 76
2020-06-23 14:00:00 23.9 11 Oeste 20 Oeste 0 -- -- 74
2020-06-23 13:00:00 23.5 12 Oeste 17 Oeste 0 -- -- 77
2020-06-23 12:00:00 23 13 Oeste 15 Oeste 0 -- -- 73
2020-06-23 11:00:00 22 14 Oeste 16 Oeste 0 -- -- 68
2020-06-23 10:00:00 21.5 13 Oeste 15 Oeste 0 -- -- 68
2020-06-23 09:00:00 21.8 8 Oeste 9 Oeste 0 -- -- 68
2020-06-23 08:00:00 21.7 4 Noroeste 8 Oeste 0 -- -- 71
2020-06-23 07:00:00 21.2 0 Calma 8 Nordeste 0 -- -- 71
2020-06-23 06:00:00 20.9 3 Noroeste 8 Oeste 0 -- -- 66
2020-06-23 05:00:00 20.9 6 Noroeste 12 Norte 0 -- -- 62
2020-06-23 04:00:00 21.5 3 Noroeste 8 Noroeste 0 -- -- 69
2020-06-23 03:00:00 21.4 4 Noroeste 8 Noroeste 0 -- -- 69
2020-06-23 02:00:00 21.8 0 Calma 17 Nordeste 0 -- -- 67
2020-06-23 01:00:00 21.6 10 Nordeste 18 Nordeste 0 -- -- 60
2020-06-23 00:00:00 21.9 10 Nordeste 18 Nordeste 0 -- -- 58
2020-06-22 23:00:00 22.2 10 Nordeste 20 Este 0 -- -- 54
2020-06-22 22:00:00 22.3 13 Nordeste 24 Nordeste 0 -- -- 52
2020-06-22 21:00:00 22.9 17 Nordeste 31 Nordeste 0 -- -- 47
2020-06-22 20:00:00 22.5 20 Este 26 Este 0 -- -- 51
2020-06-22 19:00:00 22.2 21 Este 32 Este 0 -- -- 55
2020-06-22 18:00:00 22.8 28 Este 35 Nordeste 0 -- -- 45
2020-06-22 17:00:00 23.5 29 Este 44 Nordeste 0 -- -- 41
2020-06-22 16:00:00 24.5 29 Este 43 Este 0 -- -- 35
2020-06-22 15:00:00 24.8 32 Este 41 Nordeste 0 -- -- 32
2020-06-22 14:00:00 23.4 33 Este 42 Este 0 -- -- 38
2020-06-22 13:00:00 23.6 25 Nordeste 41 Este 0 -- -- 38
2020-06-22 12:00:00 21.1 35 Este 40 Este 0 -- -- 50
2020-06-22 11:00:00 21.9 32 Este 39 Este 0 -- -- 64
2020-06-22 10:00:00 22 31 Nordeste 41 Nordeste 0 -- -- 64
2020-06-22 09:00:00 22.6 15 Nordeste 22 Este 0 -- -- 70
2020-06-22 08:00:00 22.9 0 Calma 10 Oeste 0 -- -- 72
2020-06-22 07:00:00 20.8 2 Oeste 6 Nordeste 0 -- -- 75
2020-06-22 06:00:00 21.2 2 Oeste 6 Oeste 0 -- -- 72
2020-06-22 05:00:00 20.6 0 Calma 6 Nordeste 0 -- -- 71
2020-06-22 04:00:00 21.2 -- -- -- -- 0 -- -- 71
2020-06-22 03:00:00 21.9 0 Calma 3 Noroeste 0 -- -- 72
2020-06-22 02:00:00 22.1 0 Calma 6 Nordeste 0 -- -- 73
2020-06-22 01:00:00 20.8 2 Este 6 Nordeste 0 -- -- 67
2020-06-22 00:00:00 19.2 0 Calma 6 Noroeste 0 -- -- 62
2020-06-21 23:00:00 19.7 4 Noroeste 7 Noroeste 0 -- -- 54
2020-06-21 22:00:00 22.1 0 Calma 4 Oeste 0 -- -- 66
2020-06-21 21:00:00 24.6 4 Oeste 6 Oeste 0 -- -- 72
2020-06-21 20:00:00 24.6 7 Sudoeste 9 Sudoeste 0 -- -- 76
2020-06-21 19:00:00 24.6 7 Oeste 8 Oeste 0 -- -- 71
2020-06-21 18:00:00 25.1 4 Sudoeste 7 Oeste 0 -- -- 71
2020-06-21 17:00:00 25.4 4 Sudoeste 8 Sudoeste 0 -- -- 70
2020-06-21 16:00:00 24.6 7 Sudoeste 11 Sudoeste 0 -- -- 77
2020-06-21 15:00:00 24.3 7 Sudoeste 12 Oeste 0 -- -- 74
2020-06-21 14:00:00 23.2 10 Oeste 13 Sudoeste 0 -- -- 74
2020-06-21 13:00:00 22.6 12 Sudoeste 14 Sudoeste 0 -- -- 76
2020-06-21 12:00:00 18.5 13 Oeste 15 Oeste 0 -- -- 63
2020-06-21 11:00:00 18.6 13 Oeste 15 Oeste 0 -- -- 63
2020-06-21 10:00:00 20.8 14 Oeste 18 Oeste 0 -- -- 72
2020-06-21 09:00:00 18.5 15 Oeste 18 Oeste 0 -- -- 64
2020-06-21 08:00:00 20 13 Oeste 16 Oeste 0 -- -- 66
2020-06-21 07:00:00 19.3 11 Noroeste 15 Noroeste 0 -- -- 65
2020-06-21 06:00:00 20.2 9 Oeste 12 Oeste 0 -- -- 73
2020-06-21 05:00:00 20.7 7 Oeste 12 Oeste 0 -- -- 74
2020-06-21 04:00:00 21.3 0 Calma 3 Oeste 0 -- -- 75
2020-06-21 03:00:00 21.4 0 Calma 6 Noroeste 0 -- -- 74
2020-06-21 02:00:00 21 0 Calma 4 Oeste 0 -- -- 74
2020-06-21 01:00:00 20.7 0 Calma 12 Oeste 0 -- -- 70
2020-06-21 00:00:00 19.3 10 Noroeste 15 Noroeste 0 -- -- 64
2020-06-20 23:00:00 21.8 7 Oeste 15 Oeste 0 -- -- 77
2020-06-20 22:00:00 22.7 15 Oeste 17 Oeste 0 -- -- 80
2020-06-20 21:00:00 23.3 16 Oeste 17 Oeste 0 -- -- 70
2020-06-20 20:00:00 23.8 14 Oeste 14 Oeste 0 -- -- 77
2020-06-20 19:00:00 24.5 9 Oeste 10 Oeste 0 -- -- 79
2020-06-20 18:00:00 24 8 Oeste 9 Oeste 0 -- -- 76
2020-06-20 17:00:00 24.5 4 Sur 4 Sur 0 -- -- 70
2020-06-20 16:00:00 24.3 2 Sur 9 Este 0 -- -- 76
2020-06-20 15:00:00 23.3 10 Este 13 Este 0 -- -- 81
2020-06-20 14:00:00 22.7 10 Este 15 Este 0 -- -- 80
2020-06-20 13:00:00 22.8 15 Este 17 Este 0 -- -- 73
2020-06-20 12:00:00 22.8 13 Este 14 Este 0 -- -- 77
2020-06-20 11:00:00 23.6 0 Calma 6 Sudoeste 0 -- -- 79
2020-06-20 10:00:00 21.3 6 Oeste 9 Sudoeste 0 -- -- 84
2020-06-20 09:00:00 21.4 8 Oeste 9 Oeste 0 -- -- 82
2020-06-20 08:00:00 21.7 0 Calma 3 Noroeste 0 -- -- 82
2020-06-20 07:00:00 19.3 0 Calma 3 Oeste 0 -- -- 86
2020-06-20 06:00:00 19.7 0 Calma 5 Este 0 -- -- 85
2020-06-20 05:00:00 20.2 5 Este 6 Nordeste 0 -- -- 84
2020-06-20 04:00:00 21.1 0 Calma 7 Noroeste 0 -- -- 83
2020-06-20 03:00:00 21 5 Noroeste 7 Noroeste 0 -- -- 85
2020-06-20 02:00:00 21.1 3 Nordeste 13 Este 0 -- -- 86
2020-06-20 01:00:00 21.7 10 Nordeste 24 Nordeste 0 -- -- 83
2020-06-20 00:00:00 22.1 24 Nordeste 28 Este 0 -- -- 75
2020-06-19 23:00:00 21.7 4 Este 8 Oeste 0 -- -- 75
2020-06-19 22:00:00 22 6 Oeste 16 Oeste 0 -- -- 75
2020-06-19 21:00:00 21.9 12 Sudoeste 27 Oeste 0 -- -- 75
2020-06-19 20:00:00 19.7 21 Oeste 31 Oeste 0 -- -- 67
2020-06-19 19:00:00 21.2 22 Oeste 27 Oeste 0 -- -- 71
2020-06-19 18:00:00 19.7 20 Oeste 26 Oeste 0 -- -- 69
2020-06-19 17:00:00 21.5 19 Oeste 23 Oeste 0 -- -- 69
2020-06-19 16:00:00 22.9 15 Oeste 20 Oeste 0 -- -- 75
2020-06-19 15:00:00 22.4 17 Oeste 21 Oeste 0 -- -- 77
2020-06-19 14:00:00 21.8 15 Oeste 20 Oeste 0 -- -- 79
2020-06-19 13:00:00 21 10 Oeste 17 Oeste 0 -- -- 83
2020-06-19 12:00:00 20.9 14 Sudoeste 19 Sudoeste 0 -- -- 83
2020-06-19 11:00:00 20.9 11 Oeste 15 Oeste 0 -- -- 83
2020-06-19 10:00:00 20.7 7 Oeste 12 Sudoeste 0 -- -- 83
2020-06-19 09:00:00 21.3 8 Sudoeste 12 Noroeste 0 -- -- 80
2020-06-19 08:00:00 20.8 10 Noroeste 26 Oeste 0 -- -- 78
2020-06-19 07:00:00 18.9 13 Oeste 18 Oeste 0 -- -- 83
2020-06-19 06:00:00 19.6 4 Este 13 Este 0 -- -- 84
2020-06-19 05:00:00 20.1 11 Este 13 Este 0 -- -- 81
2020-06-19 04:00:00 20.4 6 Sudeste 8 Sudeste 0 -- -- 75
2020-06-19 03:00:00 20.1 2 Noroeste 14 Oeste 0 -- -- 72
2020-06-19 02:00:00 20.5 13 Oeste 19 Oeste 0 -- -- 76
2020-06-19 01:00:00 20.7 10 Sudoeste 18 Sudoeste 0 -- -- 75
2020-06-19 00:00:00 21.2 17 Oeste 29 Oeste 0 -- -- 71
2020-06-18 23:00:00 21.7 12 Oeste 20 Sudoeste 0 -- -- 74
2020-06-18 22:00:00 21.6 12 Este 22 Este 0 -- -- 87
2020-06-18 21:00:00 22.5 16 Este 19 Este 0 -- -- 84
2020-06-18 20:00:00 22.6 14 Oeste 22 Oeste 0 -- -- 83
2020-06-18 19:00:00 23 10 Sudoeste 13 Sudoeste 0 -- -- 83
2020-06-18 18:00:00 23.3 10 Oeste 18 Sudoeste 0 -- -- 80
2020-06-18 17:00:00 21.6 15 Sudoeste 18 Sudoeste 0 -- -- 87
2020-06-18 16:00:00 23.1 3 Sudeste 14 Este 0 -- -- 79
2020-06-18 15:00:00 22.5 13 Este 24 Este 0 -- -- 82
2020-06-18 14:00:00 22.1 23 Este 32 Este 0 -- -- 82
2020-06-18 13:00:00 22 31 Este 40 Este 0 -- -- 82
2020-06-18 12:00:00 22.4 32 Nordeste 46 Nordeste 0 -- -- 80
2020-06-18 11:00:00 21.2 39 Este 49 Este 0 -- -- 85
2020-06-18 10:00:00 21.5 34 Nordeste 46 Nordeste 0 -- -- 81
2020-06-18 09:00:00 21.3 26 Este 34 Este 0 -- -- 79
2020-06-18 08:00:00 19.5 6 Nordeste 24 Este 0 -- -- 64
2020-06-18 07:00:00 18.1 8 Oeste 9 Oeste 0 -- -- 87
2020-06-18 06:00:00 19 0 Calma 6 Sudoeste 0 -- -- 87
2020-06-18 05:00:00 19.1 4 Oeste 8 Sudoeste 0 -- -- 87
2020-06-18 04:00:00 19.4 0 Calma 4 Oeste 0 -- -- 87
2020-06-18 03:00:00 19.7 5 Sudoeste 8 Sudoeste 0 -- -- 87
2020-06-18 02:00:00 20.2 5 Sur 9 Oeste 0 -- -- 83
2020-06-18 01:00:00 20.5 8 Oeste 15 Oeste 0 -- -- 81
2020-06-18 00:00:00 21 12 Oeste 15 Oeste 0 -- -- 78
2020-06-17 23:00:00 21.2 7 Sudoeste 10 Sur 0 -- -- 78
2020-06-17 22:00:00 21.1 5 Sudoeste 12 Sudoeste 0 -- -- 75
2020-06-17 21:00:00 21.7 8 Oeste 22 Sudoeste 0 -- -- 72
2020-06-17 20:00:00 21.8 18 Sudoeste 25 Sudoeste 0 -- -- 73
2020-06-17 19:00:00 22.3 13 Oeste 28 Sudoeste 0 -- -- 71
2020-06-17 18:00:00 23 20 Sudoeste 27 Sudoeste 0 -- -- 70
2020-06-17 17:00:00 22.7 17 Oeste 27 Sudoeste 0 -- -- 73
2020-06-17 16:00:00 22.8 13 Oeste 23 Oeste 0 -- -- 75
2020-06-17 15:00:00 22.4 17 Oeste 26 Sudoeste 0 -- -- 77
2020-06-17 14:00:00 22.3 12 Oeste 17 Sudoeste 0 -- -- 77
2020-06-17 13:00:00 22.2 10 Sudoeste 13 Sudoeste 0 -- -- 80
2020-06-17 12:00:00 21.1 11 Oeste 21 Sudoeste 0 -- -- 83
2020-06-17 11:00:00 20.5 15 Oeste 21 Oeste 0 -- -- 84
2020-06-17 10:00:00 19.6 14 Oeste 20 Oeste 0 -- -- 86
2020-06-17 09:00:00 19.4 17 Oeste 19 Oeste 0 -- -- 87
2020-06-17 08:00:00 19.4 4 Sudoeste 10 Sudoeste 0 -- -- 86
2020-06-17 07:00:00 18.8 5 Noroeste 11 Oeste 0 -- -- 88
2020-06-17 06:00:00 19 2 Sudoeste 19 Oeste 0 -- -- 87
2020-06-17 05:00:00 19 6 Oeste 15 Oeste 0 -- -- 87
2020-06-17 04:00:00 19.5 7 Sudoeste 17 Oeste 0 -- -- 87
2020-06-17 03:00:00 20.1 15 Oeste 27 Oeste 0 -- -- 85
2020-06-17 02:00:00 20.4 5 Oeste 23 Oeste 0 -- -- 83
2020-06-17 01:00:00 21.2 18 Oeste 32 Oeste 0 -- -- 79
2020-06-17 00:00:00 21 9 Oeste 22 Oeste 0 -- -- 82
2020-06-16 23:00:00 21.2 13 Oeste 30 Sudoeste 0 -- -- 81
2020-06-16 22:00:00 22.2 18 Oeste 37 Oeste 0 -- -- 75
2020-06-16 21:00:00 21.7 13 Sudoeste 37 Oeste 0 -- -- 69
2020-06-16 20:00:00 21.1 16 Oeste 31 Noroeste 0 -- -- 64
2020-06-16 19:00:00 21.1 27 Sudoeste 52 Sudoeste 0 -- -- 71
2020-06-16 18:00:00 20 32 Sudoeste 48 Sudoeste 0 -- -- 70
2020-06-16 17:00:00 20.9 35 Sudoeste 46 Sudoeste 0 -- -- 70
2020-06-16 16:00:00 20.5 27 Sudoeste 43 Sudoeste 0 -- -- 75
2020-06-16 15:00:00 19.2 35 Sudoeste 46 Sudoeste 0 -- -- 67
2020-06-16 14:00:00 19 28 Oeste 39 Oeste 0 -- -- 68
2020-06-16 13:00:00 19.3 20 Oeste 54 Oeste 0 -- -- 68
2020-06-16 12:00:00 21 15 Oeste 24 Oeste 0 -- -- 74
2020-06-16 11:00:00 21 18 Oeste 26 Oeste 0 -- -- 74
2020-06-16 10:00:00 20.4 5 Sudoeste 16 Sudoeste 0 -- -- 81
2020-06-16 09:00:00 19.6 13 Oeste 18 Oeste 0 -- -- 82
2020-06-16 08:00:00 19.6 11 Sudoeste 15 Sudoeste 0 -- -- 79
2020-06-16 07:00:00 18.1 6 Oeste 9 Sudoeste 0 -- -- 85
2020-06-16 06:00:00 18.8 7 Oeste 12 Oeste 0 -- -- 85
2020-06-16 05:00:00 18.9 5 Sudoeste 7 Sudoeste 0 -- -- 87
2020-06-16 04:00:00 19 3 Este 5 Sudoeste 0 -- -- 84
2020-06-16 03:00:00 19 3 Oeste 8 Oeste 0 -- -- 82
2020-06-16 02:00:00 19.1 8 Sudoeste 11 Sudoeste 0 -- -- 82
2020-06-16 01:00:00 19.6 4 Oeste 20 Oeste 0 -- -- 80
2020-06-16 00:00:00 20.1 14 Oeste 19 Oeste 0 -- -- 75
2020-06-15 23:00:00 20.3 11 Sudoeste 21 Sudoeste 0 -- -- 73
2020-06-15 22:00:00 20.8 10 Oeste 20 Oeste 0 -- -- 72
2020-06-15 21:00:00 20.6 17 Sudoeste 22 Oeste 0 -- -- 71
2020-06-15 20:00:00 20.3 18 Oeste 29 Oeste 0 -- -- 68
2020-06-15 19:00:00 20.3 23 Oeste 39 Sudoeste 0 -- -- 65
2020-06-15 18:00:00 19.9 22 Oeste 32 Oeste 0 -- -- 65
2020-06-15 17:00:00 20.1 18 Oeste 40 Oeste 0 -- -- 70
2020-06-15 16:00:00 20.6 21 Sudoeste 39 Sudoeste 0 -- -- 71
2020-06-15 15:00:00 20.7 22 Oeste 33 Sudoeste 0 -- -- 70
2020-06-15 14:00:00 20.1 20 Oeste 28 Oeste 0 -- -- 68
2020-06-15 13:00:00 20.2 27 Oeste 36 Oeste 0 -- -- 68
2020-06-15 12:00:00 20.6 21 Oeste 25 Oeste 0 -- -- 75
2020-06-15 11:00:00 19.8 19 Oeste 21 Oeste 0 -- -- 80
2020-06-15 10:00:00 19.1 15 Oeste 18 Oeste 0 -- -- 82
2020-06-15 09:00:00 19.7 8 Sudoeste 12 Sudoeste 0 -- -- 82
2020-06-15 08:00:00 20.2 3 Nordeste 6 Sudoeste 0 -- -- 81
2020-06-15 07:00:00 17.3 2 Este 7 Nordeste 0 -- -- 84
2020-06-15 06:00:00 17.4 2 Nordeste 5 Oeste 0 -- -- 85
2020-06-15 05:00:00 17.7 4 Oeste 5 Oeste 0 -- -- 86
2020-06-15 04:00:00 18.1 0 Calma 5 Nordeste 0 -- -- 84
2020-06-15 03:00:00 17.9 5 Oeste 9 Oeste 0 -- -- 82
2020-06-15 02:00:00 18.2 5 Oeste 10 Oeste 0 -- -- 82
2020-06-15 01:00:00 18.8 9 Oeste 12 Oeste 0 -- -- 80
2020-06-15 00:00:00 19.4 4 Oeste 13 Sudoeste 0 -- -- 75
2020-06-14 23:00:00 19.8 13 Oeste 26 Oeste 0 -- -- 71
2020-06-14 22:00:00 19.2 14 Oeste 33 Sudoeste 0 -- -- 67
2020-06-14 21:00:00 19.2 20 Oeste 51 Oeste 0 -- -- 63
2020-06-14 20:00:00 19.2 21 Oeste 36 Sudoeste 0 -- -- 62
2020-06-14 19:00:00 21.2 14 Oeste 37 Sudoeste 0 -- -- 70
2020-06-14 18:00:00 20.6 32 Sudoeste 41 Sudoeste 0 -- -- 75
2020-06-14 17:00:00 20.6 31 Sudoeste 42 Sudoeste 0 -- -- 74
2020-06-14 16:00:00 20.4 36 Sudoeste 50 Sudoeste 0 -- -- 76
2020-06-14 15:00:00 20.5 37 Sudoeste 45 Sudoeste 0 -- -- 77
2020-06-14 14:00:00 20.3 30 Sudoeste 35 Sudoeste 0 -- -- 74
2020-06-14 13:00:00 19.6 13 Oeste 30 Oeste 0 -- -- 70
2020-06-14 12:00:00 20.2 18 Oeste 28 Oeste 0 -- -- 70
2020-06-14 11:00:00 19.9 18 Oeste 28 Oeste 0 -- -- 76
2020-06-14 10:00:00 18.9 17 Sudoeste 18 Sudoeste 0 -- -- 84
2020-06-14 09:00:00 19.4 9 Oeste 11 Oeste 0 -- -- 76
2020-06-14 08:00:00 18.5 6 Oeste 8 Oeste 0 -- -- 82
2020-06-14 07:00:00 17.7 5 Oeste 9 Sudoeste 0 -- -- 84
2020-06-14 06:00:00 19 5 Sudoeste 16 Noroeste 0 -- -- 76
2020-06-14 05:00:00 18.3 6 Oeste 11 Noroeste 0 -- -- 83
2020-06-14 04:00:00 18.3 9 Noroeste 26 Sudoeste 0 -- -- 85
2020-06-14 03:00:00 18.5 3 Norte 11 Sudoeste 0 -- -- 83
2020-06-14 02:00:00 18.7 9 Oeste 19 Sudoeste 0 -- -- 83
2020-06-14 01:00:00 19.4 6 Oeste 21 Oeste 0 -- -- 76
2020-06-14 00:00:00 19.5 14 Oeste 26 Sudoeste 0 -- -- 77
2020-06-13 23:00:00 20.4 6 Oeste 10 Oeste 0 -- -- 75
2020-06-13 22:00:00 20.4 9 Oeste 20 Oeste 0 -- -- 76
2020-06-13 21:00:00 20.1 18 Oeste 28 Sudoeste 0 -- -- 74
2020-06-13 20:00:00 19.5 23 Sudoeste 32 Oeste 0 -- -- 69
2020-06-13 19:00:00 19.8 18 Oeste 27 Sudoeste 0 -- -- 70
2020-06-13 18:00:00 19.7 14 Oeste 28 Sudoeste 0 -- -- 72
2020-06-13 17:00:00 19.7 18 Oeste 27 Sudoeste 0 -- -- 72
2020-06-13 16:00:00 19.8 20 Oeste 32 Sudoeste 0 -- -- 73
2020-06-13 15:00:00 19.6 26 Sudoeste 32 Sudoeste 0 -- -- 76
2020-06-13 14:00:00 19.5 18 Sudoeste 24 Sudoeste 0 -- -- 77
2020-06-13 13:00:00 18.5 12 Oeste 19 Sudoeste 0 -- -- 70
2020-06-13 12:00:00 19.7 2 Oeste 12 Sudoeste 0 -- -- 76
2020-06-13 11:00:00 19 12 Sudoeste 14 Sudoeste 0 -- -- 80
2020-06-13 10:00:00 18.9 12 Oeste 15 Oeste 0 -- -- 77
2020-06-13 09:00:00 18.7 7 Sur 12 Nordeste 0 -- -- 70
2020-06-13 08:00:00 17.4 7 Nordeste 10 Norte 0 -- -- 67
2020-06-13 07:00:00 17.2 5 Sudeste 14 Nordeste 0 -- -- 70
2020-06-13 06:00:00 15.9 9 Oeste 27 Oeste 0 -- -- 66
2020-06-13 05:00:00 16.6 14 Oeste 29 Oeste 0 -- -- 64
2020-06-13 04:00:00 18.5 28 Oeste 42 Sudoeste 0 -- -- 76
2020-06-13 03:00:00 18.7 26 Sudoeste 40 Sudoeste 0 -- -- 82
2020-06-13 02:00:00 18.9 34 Sudoeste 44 Sudoeste 0 -- -- 80
2020-06-13 01:00:00 19 35 Sudoeste 44 Sudoeste 0 -- -- 79
2020-06-13 00:00:00 19.1 39 Sudoeste 48 Sudoeste 0 -- -- 79
2020-06-12 23:00:00 19.2 42 Sudoeste 50 Sudoeste 0 -- -- 78
2020-06-12 22:00:00 19.4 41 Sudoeste 49 Sudoeste 0 -- -- 78
2020-06-12 21:00:00 19.9 38 Sudoeste 47 Sudoeste 0 -- -- 71
2020-06-12 20:00:00 19.7 40 Sudoeste 50 Sudoeste 0 -- -- 81
2020-06-12 19:00:00 19.9 39 Sudoeste 46 Sudoeste 0 -- -- 78
2020-06-12 18:00:00 20.1 37 Sudoeste 47 Sudoeste 0 -- -- 78
2020-06-12 17:00:00 19.7 40 Sudoeste 49 Sudoeste 0 -- -- 82
2020-06-12 16:00:00 19.7 38 Sudoeste 45 Sudoeste 0 -- -- 83
2020-06-12 15:00:00 19.3 41 Sudoeste 48 Sudoeste 0 -- -- 86
2020-06-12 14:00:00 19 37 Sudoeste 43 Sudoeste 0 -- -- 85
2020-06-12 13:00:00 19.1 32 Sudoeste 37 Sudoeste 0 -- -- 84
2020-06-12 12:00:00 19.4 12 Oeste 38 Oeste 0 -- -- 81
2020-06-12 11:00:00 18.7 26 Sudoeste 37 Sudoeste 0 -- -- 84
2020-06-12 10:00:00 18.8 13 Oeste 21 Oeste 0 -- -- 82
2020-06-12 09:00:00 18.1 12 Sudoeste 20 Oeste 0 -- -- 91
2020-06-12 08:00:00 18 19 Oeste 32 Sudoeste 0 -- -- 93
2020-06-12 07:00:00 18.1 25 Sudoeste 32 Sudoeste 0 -- -- 92
2020-06-12 06:00:00 18 28 Sudoeste 40 Sudoeste 0 -- -- 93
2020-06-12 05:00:00 18.1 37 Sudoeste 44 Sudoeste 0 -- -- 92
2020-06-12 04:00:00 18.2 35 Sudoeste 46 Sudoeste 0 -- -- 92
2020-06-12 03:00:00 18.4 31 Sudoeste 38 Sudoeste 0 -- -- 91
2020-06-12 02:00:00 18.5 18 Oeste 40 Sudoeste 0 -- -- 89
2020-06-12 01:00:00 18.6 32 Sudoeste 46 Sudoeste 0 -- -- 88
2020-06-12 00:00:00 18.8 35 Sudoeste 52 Sudoeste 0 -- -- 86